Pittsburg, Kansas
Current Conditions -  °F | °C
As of 10:15 AM on Monday 24 Nov 2014 (Local Time) from KPTS Reporting Station
Clear Clear  
Wind Chill: 37°   Ceiling: Unl
Heat Index: 44°   Visibility: 10mi
Dew Point: 30°   Wind: 14mph
Humidity: 59%   Direction: 280°W
Pressure: 29.82"   Gusts: 21mph
Location:  37.41°N, 94.7°W
Report Text: KPTS 241615Z AUTO 28012G18KT 10SM CLR 06/M01 A2982 RMK AO2 T00641011
Loading
Personal Weather Stations






























Interactive Weather Map New forecast layout! Learn more

10-Day Weather Forecast

Advertisements
Track Severe Weather on mobile